MKJS/MBJ METAR and TAF weather

Enter ICAO airport designator
Station Type Date Time Source
MKJS METAR 2020/07/04 03:00 UTC NOAA

MKJS 040300Z VRB02KT 9999 FEW022 29/25 Q1014


Station Type Date Time Source
MKJS Decoded METAR 2020/07/04 03:00 UTC NOAA

Montego Bay / Sangster, Jamaica (MKJS) 18-30N 077-55W 8M
Jul 03, 2020 - 11:00 PM EDT / 2020.07.04 0300 UTC
Wind: Variable at 2 MPH (2 KT):0
Visibility: greater than 7 mile(s):0
Sky conditions: mostly clear
Temperature: 84 F (29 C)
Dew Point: 77 F (25 C)
Relative Humidity: 79%
Pressure (altimeter): 29.94 in. Hg (1014 hPa)
ob: MKJS 040300Z VRB02KT 9999 FEW022 29/25 Q1014
cycle: 3

Station Type Date Time Source
MKJS TAF 2020/07/03 18:20 UTC NOAA

TAF MKJS 031715Z 0318/0418 07016KT 9999 FEW020 FEW022CB
TEMPO 0318/0324 5000 TSRA SCT018 SCT020CB
BECMG 0400/0402 VRB02KT FEW022
BECMG 0413/0415 06016KT

Example: see airport list